• Join FlightAware (Why Join?)
  • Login
  • US Flag 
Rudolph Flight #1: Arrived! 
08:59AM EST


 

Airport Tracker/Info


-or-


 

Live Flight TrackerFlight Track Log ✈ SWR441 ✈ 24-May-2013 ✈ EGLC / LCY - LSGG / GVA

Flight Track Log - Related Links

Times and Time Zones

All times are in EDT time to prevent confusion due to time zone crossing. See the SWR441 flight status page for this flight to view local times or setup timezone preferences in your user account.

Time Position Orientation Groundspeed Altitude Reporting Facility
EDT Latitude Longitude Course Direction KTS MPH feet Rate Location/Type
02:00AM 51.5070 0.0014 91° East 132 152 300  Level FlightAware UK
02:00AM 51.5070 0.0050 274° West 103 119 1,800 7,200 Climbing FlightAware
02:01AM 51.5080 -0.0040 280° West 103 119 2,100 960 Climbing FlightAware
02:01AM 51.5120 -0.0140 303° West 115 132 2,300 600 Climbing FlightAware
02:01AM 51.5190 -0.0230 321° Northwest 131 151 2,400 -1,680 Climbing FlightAware
02:01AM 51.5356 -0.0316 321° Northwest 172 198 1,300 1,200 Descending FlightAware UK
02:01AM 51.5340 -0.0310 321° Northwest 149 171 2,900 720 Climbing FlightAware
02:02AM 51.5542 -0.0341 321° Northwest 200 230 1,600 600 Descending FlightAware UK
02:02AM 51.5500 -0.0350 321° Northwest 172 198 3,100 3,600 Climbing FlightAware
02:02AM 51.5670 -0.0170 33° Northeast 222 255 3,100  Level FlightAware
02:02AM 51.5710 0.0060 74° East 229 264 3,100 240 Level FlightAware
02:03AM 51.5720 0.0320 86° East 240 276 3,200 -2,820 Climbing FlightAware
02:03AM 51.5732 0.0674 86° East 232 267 1,600  Descending FlightAware UK
02:03AM 51.5730 0.0830 86° East 256 295 3,200  Climbing FlightAware
02:04AM 51.5742 0.1386 86° East 254 292 1,600  Descending FlightAware UK
02:04AM 51.5740 0.1350 86° East 273 314 3,200 5,640 Climbing FlightAware
02:04AM 51.5740 0.1680 86° East 276 318 3,200 -5,640 Level FlightAware
02:04AM 51.5746 0.1757 86° East 256 295 1,700 1,560 Descending FlightAware UK
02:04AM 51.5750 0.2320 89° East 279 321 4,000 3,180 Climbing FlightAware
02:05AM 51.5760 0.2750 88° East 282 325 4,600 180 Climbing FlightAware
02:05AM 51.5762 0.3505 88° East 266 306 4,200 1,980 Descending FlightAware UK
02:05AM 51.5760 0.3380 88° East 281 323 5,600 3,780 Climbing FlightAware
02:06AM 51.5770 0.4060 89° East 286 329 6,100 -1,260 Climbing FlightAware
02:06AM 51.5755 0.4529 89° East 268 308 4,600 -2,520 Descending FlightAware UK
02:06AM 51.5639 0.4866 119° Southeast 268 308 4,600 4,320 Level FlightAware UK
02:06AM 51.5630 0.4880 119° Southeast 291 335 6,200 2,820 Climbing FlightAware
02:07AM 51.5400 0.5410 125° Southeast 291 335 6,200 -1,920 Level FlightAware
02:07AM 51.5224 0.5826 125° Southeast 270 311 4,600  Descending FlightAware UK
02:07AM 51.5180 0.5930 125° Southeast 290 334 6,200 4,800 Climbing FlightAware
02:08AM 51.5100 0.6100 127° Southeast 289 333 6,200 -3,720 Level FlightAware
02:08AM 51.4951 0.6459 127° Southeast 266 306 4,600  Descending FlightAware UK
02:08AM 51.4870 0.6630 127° Southeast 292 336 6,200 2,700 Climbing FlightAware
02:09AM 51.4620 0.7200 125° Southeast 294 338 6,600 900 Climbing FlightAware
02:09AM 51.4510 0.7450 125° Southeast 295 339 6,900 1,320 Climbing FlightAware
02:09AM 51.4220 0.7750 147° Southeast 289 333 7,500 -600 Climbing FlightAware
02:10AM 51.3954 0.7852 147° Southeast 276 318 6,500 1,380 Descending FlightAware UK
02:10AM 51.3830 0.7900 147° Southeast 292 336 8,200 4,620 Climbing FlightAware
02:10AM 51.3640 0.7960 169° South 295 339 8,600 -1,440 Climbing FlightAware
02:10AM 51.3396 0.8048 169° South 280 322 7,500 1,680 Descending FlightAware UK
02:10AM 51.3290 0.8090 169° South 297 342 9,300 5,040 Climbing FlightAware
02:11AM 51.3080 0.8160 168° South 300 345 9,600 1,080 Climbing FlightAware
02:11AM 51.2540 0.8350 168° South 316 364 10,300  Climbing FlightAware
02:12AM 51.2054 0.8530 168° South 292 336 9,600 1,560 Descending FlightAware UK
02:12AM 51.1890 0.8590 168° South 313 360 11,500 1,500 Climbing FlightAware
02:12AM 51.1541 0.8704 168° South 292 336 10,500 1,320 Descending FlightAware UK
02:13AM 51.1320 0.8720 168° South 320 368 12,400 3,060 Climbing FlightAware
02:13AM 51.0710 0.8770 177° South 321 369 13,500 1,620 Climbing FlightAware
02:14AM 51.0587 0.8780 177° South 320 368 13,700 -1,620 Climbing FlightAware ADS-B
02:14AM 51.0294 0.8803 177° South 302 348 12,800 1,560 Descending FlightAware UK
02:14AM 51.0133 0.8822 177° South 323 372 14,500 1,200 Climbing FlightAware ADS-B
02:14AM 50.9850 0.8858 177° South 306 352 13,400 1,380 Descending FlightAware UK
02:15AM 50.9559 0.8895 177° South 330 380 15,400 1,380 Climbing FlightAware ADS-B
02:15AM 50.9207 0.8943 177° South 308 354 14,400 -780 Descending FlightAware UK
02:15AM 50.8829 0.8994 175° South 314 361 14,800 4,200 Climbing FlightAware UK
02:15AM 50.8870 0.8990 175° South 342 394 16,300 10,800 Climbing FlightAware
02:16AM 50.8671 0.9015 175° South 342 394 16,600 -540 Climbing FlightAware ADS-B
02:16AM 50.8087 0.8950 175° South 318 366 15,900 -420 Descending FlightAware UK
02:17AM 50.7788 0.8649 212° Southwest 326 375 16,200 3,060 Climbing FlightAware UK
02:17AM 50.7620 0.8470 212° Southwest 333 383 17,900 4,020 Climbing FlightAware
02:17AM 50.7405 0.8244 214° Southwest 336 387 18,300 -1,320 Climbing FlightAware ADS-B
02:17AM 50.7178 0.7982 214° Southwest 336 387 17,200 1,200 Descending FlightAware UK
02:18AM 50.7017 0.7823 214° Southwest 343 395 18,900 960 Climbing FlightAware ADS-B
02:18AM 50.6705 0.7474 214° Southwest 342 394 17,800 960 Descending FlightAware UK
02:18AM 50.6615 0.7386 214° Southwest 349 402 19,400 960 Climbing FlightAware ADS-B
02:18AM 50.6378 0.7133 214° Southwest 344 396 18,200 1,020 Descending FlightAware UK
02:19AM 50.6082 0.6832 214° Southwest 356 410 20,100 960 Climbing FlightAware ADS-B
02:19AM 50.5717 0.6449 214° Southwest 350 403 19,000 960 Descending FlightAware UK
02:19AM 50.5582 0.6324 214° Southwest 366 421 20,700 1,260 Climbing FlightAware ADS-B
02:20AM 50.5119 0.5831 214° Southwest 354 407 19,900 -540 Descending FlightAware UK
02:20AM 50.4781 0.5479 214° Southwest 358 412 20,200 4,020 Climbing FlightAware UK
02:20AM 50.4750 0.5460 214° Southwest 370 426 21,800 480 Climbing FlightAware
02:21AM 50.4439 0.5121 214° Southwest 364 419 20,400 240 Descending FlightAware UK
02:21AM 50.4130 0.4800 214° Southwest 388 447 22,000 120 Climbing FlightAware
02:22AM 50.3712 0.4365 214° Southwest 386 444 20,500  Descending FlightAware UK
02:22AM 50.3510 0.4170 214° Southwest 409 471 22,000 480 Climbing FlightAware
02:22AM 50.3146 0.3787 214° Southwest 396 456 20,800 900 Descending FlightAware UK
02:22AM 50.2840 0.3550 214° Southwest 420 483 22,600 3,480 Climbing FlightAware
02:23AM 50.2570 0.3490 188° South 432 497 22,900 -1,680 Climbing FlightAware
02:23AM 50.2136 0.3642 188° South 388 447 21,700 960 Descending FlightAware UK
02:23AM 50.1950 0.3800 188° South 438 504 23,400 780 Climbing FlightAware
02:24AM 50.1618 0.4152 188° South 388 447 22,100 -1,860 Descending FlightAware UK
02:24AM 50.1313 0.4467 146° Southeast 390 449 22,300 4,860 Climbing FlightAware UK
02:24AM 50.1290 0.4500 146° Southeast 441 507 23,900 780 Climbing FlightAware
02:24AM 50.0808 0.4996 146° Southeast 386 444 22,700 720 Descending FlightAware UK
02:25AM 50.0590 0.5210 146° Southeast 443 510 24,400 660 Climbing FlightAware
02:25AM 50.0192 0.5651 146° Southeast 386 444 23,100 780 Descending FlightAware UK
02:25AM 49.9850 0.6010 146° Southeast 443 510 25,000 1,140 Climbing FlightAware
02:26AM 49.9480 0.6407 146° Southeast 386 444 23,900 -1,140 Descending FlightAware UK
02:26AM 49.9179 0.6727 146° Southeast 382 440 24,300 4,560 Climbing FlightAware UK
02:26AM 49.9090 0.6820 146° Southeast 434 499 25,900 2,460 Climbing FlightAware
02:27AM 49.8430 0.7500 146° Southeast 435 501 26,300 -960 Climbing FlightAware
02:27AM 49.8081 0.7871 146° Southeast 382 440 25,000 840 Descending FlightAware UK
02:27AM 49.7708 0.8335 146° Southeast 435 501 26,900 840 Climbing FlightAware ADS-B
02:28AM 49.7441 0.8719 146° Southeast 380 437 25,600 720 Descending FlightAware UK
02:28AM 49.7113 0.9159 146° Southeast 433 498 27,400 780 Climbing FlightAware ADS-B
02:28AM 49.6899 0.9462 146° Southeast 380 437 26,100 -2,040 Descending FlightAware UK
02:29AM 49.6631 0.9831 138° Southeast 380 437 26,300 4,740 Climbing FlightAware UK
02:29AM 49.6533 0.9957 138° Southeast 428 493 28,000 960 Climbing FlightAware ADS-B
02:29AM 49.6189 1.0444 138° Southeast 378 435 26,800 660 Descending FlightAware UK
02:29AM 49.5904 1.0829 138° Southeast 426 490 28,500 660 Climbing FlightAware ADS-B
02:30AM 49.5662 1.1175 138° Southeast 376 433 27,200 720 Descending FlightAware UK
02:30AM 49.5451 1.1456 138° Southeast 426 490 28,900 600 Climbing FlightAware ADS-B
02:30AM 49.5220 1.1783 138° Southeast 376 433 27,500 180 Descending FlightAware UK
02:31AM 49.4987 1.2083 138° Southeast 430 495 29,000  Climbing FlightAware ADS-B
02:31AM 49.4687 1.2507 138° Southeast 386 444 27,500  Descending FlightAware UK
02:31AM 49.4371 1.2928 138° Southeast 436 502 29,000  Climbing FlightAware ADS-B
02:32AM 49.4047 1.3387 138° Southeast 394 453 27,500  Descending FlightAware UK
02:32AM 49.3787 1.3717 138° Southeast 443 510 29,000 1,860 Climbing FlightAware ADS-B
02:32AM 49.3321 1.4360 138° Southeast 441 507 29,000 -1,860 Level FlightAware ADS-B
02:33AM 49.3036 1.4753 138° Southeast 392 451 27,500  Descending FlightAware UK
02:33AM 49.2782 1.5083 138° Southeast 443 510 29,000  Climbing FlightAware ADS-B
02:33AM 49.2481 1.5497 138° Southeast 392 451 27,500  Descending FlightAware UK
02:33AM 49.2278 1.5766 138° Southeast 444 511 29,000  Climbing FlightAware ADS-B
02:34AM 49.2015 1.6122 138° Southeast 394 453 27,500  Descending FlightAware UK
02:34AM 49.1812 1.6391 138° Southeast 445 512 29,000  Climbing FlightAware ADS-B
02:34AM 49.1553 1.6746 138° Southeast 392 451 27,500  Descending FlightAware UK
02:34AM 49.1342 1.7013 138° Southeast 445 512 29,000  Climbing FlightAware ADS-B
02:35AM 49.0998 1.7495 138° Southeast 394 453 27,500  Descending FlightAware UK
02:35AM 49.0830 1.7695 138° Southeast 445 512 29,000  Climbing FlightAware ADS-B
02:35AM 49.0531 1.8119 138° Southeast 394 453 27,500  Descending FlightAware UK
02:36AM 49.0365 1.8333 138° Southeast 444 511 29,000  Climbing FlightAware ADS-B
02:36AM 49.0068 1.8731 138° Southeast 392 451 27,500  Descending FlightAware UK
02:36AM 48.9892 1.8951 138° Southeast 444 511 29,000  Climbing FlightAware ADS-B
02:36AM 48.9601 1.9350 138° Southeast 392 451 27,500  Descending FlightAware UK
02:37AM 48.9405 1.9605 138° Southeast 444 511 29,000 2,040 Climbing FlightAware ADS-B
02:37AM 48.8924 2.0239 139° Southeast 443 510 29,000  Level FlightAware ADS-B
02:38AM 48.8449 2.0876 139° Southeast 442 509 29,000 -1,980 Level FlightAware ADS-B
02:38AM 48.8211 2.1193 139° Southeast 394 453 27,500  Descending FlightAware UK
02:38AM 48.7958 2.1506 139° Southeast 442 509 29,000 1,860 Climbing FlightAware ADS-B
02:39AM 48.7476 2.2132 139° Southeast 442 509 29,000 -1,860 Level FlightAware ADS-B
02:39AM 48.7191 2.2528 139° Southeast 392 451 27,500  Descending FlightAware UK
02:39AM 48.7010 2.2760 139° Southeast 442 509 29,000 1,920 Climbing FlightAware ADS-B
02:40AM 48.6477 2.3447 140° Southeast 443 510 29,000  Level FlightAware ADS-B
02:40AM 48.5998 2.4074 139° Southeast 443 510 29,000  Level FlightAware ADS-B
02:41AM 48.5521 2.4677 140° Southeast 443 510 29,000  Level FlightAware ADS-B
02:41AM 48.4960 2.5426 138° Southeast 444 511 29,000  Level FlightAware ADS-B
02:42AM 48.4489 2.6031 140° Southeast 444 511 29,000  Level FlightAware ADS-B
02:42AM 48.4001 2.6651 140° Southeast 440 506 29,000  Level FlightAware ADS-B
02:43AM 48.3506 2.7284 140° Southeast 437 503 29,000  Level FlightAware ADS-B
02:43AM 48.3037 2.7892 139° Southeast 437 503 29,000  Level FlightAware ADS-B
02:44AM 48.2693 2.8322 140° Southeast 440 506 29,000  Level FlightAware ADS-B
02:44AM 48.2198 2.8904 142° Southeast 442 509 29,000  Level FlightAware ADS-B
02:45AM 48.1703 2.9464 143° Southeast 441 507 29,000  Level FlightAware ADS-B
02:45AM 48.1169 3.0080 142° Southeast 442 509 29,000  Level FlightAware ADS-B
02:46AM 48.0730 3.0522 146° Southeast 443 510 29,000  Level FlightAware ADS-B
02:46AM 48.0002 3.1004 156° South 443 510 29,000  Level FlightAware ADS-B
02:47AM 47.9160 3.1540 157° South 444 511 29,000  Level FlightAware
02:48AM 47.8290 3.2070 158° South 443 510 29,000  Level FlightAware
02:49AM 47.7540 3.2540 157° South 441 507 29,000  Level FlightAware
02:49AM 47.6680 3.3080 157° South 438 504 29,000  Level FlightAware
02:50AM 47.5930 3.3540 158° South 438 504 29,000  Level FlightAware
02:51AM 47.5200 3.4000 157° South 437 503 29,000  Level FlightAware
02:51AM 47.4360 3.4510 158° South 435 501 29,000  Level FlightAware
02:52AM 47.3620 3.4970 157° South 434 499 29,000  Level FlightAware
02:53AM 47.2870 3.5420 158° South 435 501 29,000  Level FlightAware
02:54AM 47.2020 3.5940 157° South 435 501 29,000  Level FlightAware
02:54AM 47.1330 3.6360 158° South 435 501 29,000  Level FlightAware
02:55AM 47.0659 3.6953 149° Southeast 423 487 29,000  Level FlightAware ADS-B
02:55AM 47.0541 3.7207 124° Southeast 414 476 29,000  Level FlightAware ADS-B
02:55AM 47.0481 3.7410 113° Southeast 409 471 29,000  Level FlightAware ADS-B
02:56AM 47.0242 3.8289 112° Southeast 410 472 29,000  Level FlightAware ADS-B
02:56AM 47.0042 3.9093 110° East 407 468 29,000  Level FlightAware ADS-B
02:57AM 46.9684 4.0511 110° East 406 467 29,000  Level FlightAware ADS-B
02:58AM 46.9477 4.1307 111° Southeast 405 466 29,000 -120 Level FlightAware ADS-B
02:58AM 46.9258 4.2151 111° Southeast 407 468 28,900 -720 Descending FlightAware ADS-B
02:59AM 46.8890 4.3540 111° Southeast 408 470 28,000 -960 Descending FlightAware
03:02AM 46.7980 4.6062 118° Southeast  Level Estimated
03:03AM 46.7594 4.7126 118° Southeast  Level Estimated
03:04AM 46.7207 4.8187 118° Southeast  Level Estimated
03:05AM 46.6794 4.9318 118° Southeast  Level Estimated
03:06AM 46.6379 5.0447 118° Southeast  Level Estimated
03:07AM 46.5962 5.1574 118° Southeast  Level Estimated
03:08AM 46.5545 5.2700 118° Southeast  Level Estimated
03:09AM 46.5127 5.3824 118° Southeast  Level Estimated
03:10AM 46.4708 5.4946 118° Southeast  Level Estimated
03:11AM 46.4287 5.6066 119° Southeast  Level Estimated
03:12AM 46.3866 5.7185 119° Southeast  Level Estimated
03:13AM 46.3443 5.8302 119° Southeast  Level Estimated
03:14AM 46.3019 5.9417 119° Southeast  Level Estimated
03:15AM 46.2594 6.0531 119° Southeast  Level Estimated
03:16AM 46.2381 6.1090 119° Southeast  Level Estimated
03:17AM 46.2381 6.1090 North  Level Estimated
03:18AM 46.2381 6.1090 North  Level Estimated
03:19AM 46.2381 6.1090 North  Level Estimated
03:20AM 46.2381 6.1090 North  Level Estimated
03:21AM 46.2381 6.1090 North  Level Estimated
03:22AM 46.2381 6.1090 North  Level Estimated
03:23AM 46.2381 6.1090 North  Level Estimated
03:24AM 46.2381 6.1090 North  Level Estimated
03:25AM 46.2381 6.1090 North  Level Estimated
03:26AM 46.2381 6.1090 North  Level Estimated
03:27AM 46.2381 6.1090 North  Level Estimated